Time;durP1;ratioP1;P1;durP2;ratioP2;P2;SDS_P1;SDS_P2;PMS_P1;PMS_P2;Temp;Humidity;BMP_temperature;BMP_pressure;BME280_temperature;BME280_humidity;BME280_pressure;Samples;Min_cycle;Max_cycle;Signal;HPM_P1;HPM_P2
2023/02/28 00:01:21;;;;;;;;;;;;;;;22.24;35.75;103016.63;7261241;19;153985;-53
2023/02/28 00:03:48;;;;;;;;;;;;;;;22.28;35.74;103011.28;7258961;19;154225;-55
2023/02/28 00:51:42;;;;;;;;;;;;;;;22.10;35.88;103010.59;7126935;19;3224060;-54
2023/02/28 00:54:09;;;;;;;;;;;;;;;22.05;36.37;103010.56;7288425;19;154616;-53
2023/02/28 00:56:36;;;;;;;;;;;;;;;22.03;36.15;103014.75;7289531;19;153925;-53
2023/02/28 00:59:03;;;;;;;;;;;;;;;22.01;36.02;103016.97;7286638;19;153764;-54
2023/02/28 01:01:29;;;;;;;;;;;;;;;21.97;36.54;103019.50;7288351;19;154848;-53
2023/02/28 01:03:57;;;;;;;;;;;;;;;21.93;36.51;103025.94;7289201;19;154411;-53
2023/02/28 01:06:24;;;;;;;;;;;;;;;21.87;36.77;103018.50;7290142;19;153616;-54
2023/02/28 01:08:50;;;;;;;;;;;;;;;21.86;36.97;103023.28;7288127;19;153778;-54
2023/02/28 01:11:18;;;;;;;;;;;;;;;21.80;36.52;103020.72;7294873;19;154626;-53
2023/02/28 01:13:46;;;;;;;;;;;;;;;21.80;36.70;103024.38;7285057;19;155798;-54
2023/02/28 01:16:13;;;;;;;;;;;;;;;21.74;37.14;103020.66;7289786;19;152148;-53
2023/02/28 01:18:40;;;;;;;;;;;;;;;21.73;37.19;103021.75;7287086;19;153561;-53
2023/02/28 01:21:09;;;;;;;;;;;;;;;21.66;37.32;103020.28;7290996;19;153505;-53
2023/02/28 01:23:36;;;;;;;;;;;;;;;21.63;37.64;103020.78;7288578;19;154369;-53
2023/02/28 01:26:05;;;;;;;;;;;;;;;21.60;37.77;103024.16;7289773;19;152299;-53
2023/02/28 01:28:32;;;;;;;;;;;;;;;21.55;37.78;103018.47;7284108;19;153683;-53
2023/02/28 01:30:58;;;;;;;;;;;;;;;21.49;37.63;103026.00;7289234;19;153621;-53
2023/02/28 01:33:25;;;;;;;;;;;;;;;21.44;38.16;103027.94;7295216;19;153036;-53
2023/02/28 01:35:55;;;;;;;;;;;;;;;21.41;38.19;103025.63;7290973;19;154134;-53
2023/02/28 01:38:22;;;;;;;;;;;;;;;21.37;38.26;103027.25;7287584;19;154387;-53
2023/02/28 01:40:49;;;;;;;;;;;;;;;21.38;37.84;103028.97;7286851;19;154378;-53
2023/02/28 01:43:20;;;;;;;;;;;;;;;21.36;38.06;103028.38;7285403;19;153449;-53
2023/02/28 01:45:46;;;;;;;;;;;;;;;21.27;38.40;103026.03;7289745;19;154587;-53
2023/02/28 01:48:13;;;;;;;;;;;;;;;21.25;37.99;103019.00;7287717;19;153901;-53
2023/02/28 01:50:42;;;;;;;;;;;;;;;21.25;38.22;103016.19;7287882;19;153202;-53
2023/02/28 01:53:12;;;;;;;;;;;;;;;21.20;38.58;103021.75;7287611;19;153413;-53
2023/02/28 01:55:40;;;;;;;;;;;;;;;21.16;38.61;103023.38;7296183;19;152998;-54
2023/02/28 01:58:08;;;;;;;;;;;;;;;21.11;38.40;103026.09;7288384;19;153338;-53
2023/02/28 02:00:35;;;;;;;;;;;;;;;21.11;38.73;103028.91;7285560;19;153992;-53
2023/02/28 02:03:06;;;;;;;;;;;;;;;21.05;38.54;103022.34;7260303;19;154520;-54
2023/02/28 02:05:34;;;;;;;;;;;;;;;21.08;38.44;103032.22;7259952;19;154791;-54
2023/02/28 02:08:03;;;;;;;;;;;;;;;21.02;38.66;103025.69;7260242;19;154063;-53
2023/02/28 02:10:31;;;;;;;;;;;;;;;20.99;38.66;103025.34;7257630;19;154661;-54
2023/02/28 02:13:01;;;;;;;;;;;;;;;20.95;38.49;103029.78;7257635;19;153874;-53
2023/02/28 02:15:32;;;;;;;;;;;;;;;20.92;38.65;103028.38;7252588;19;155705;-61
2023/02/28 02:18:03;;;;;;;;;;;;;;;20.91;38.89;103029.47;7266868;19;153679;-54
2023/02/28 02:20:34;;;;;;;;;;;;;;;20.85;38.53;103030.50;7256287;19;153563;-54
2023/02/28 02:23:11;;;;;;;;;;;;;;;20.87;38.54;103022.69;7258428;19;154168;-54
2023/02/28 02:25:41;;;;;;;;;;;;;;;20.88;38.63;103026.34;7256862;19;154101;-54
2023/02/28 02:28:09;;;;;;;;;;;;;;;20.85;38.32;103022.91;7255508;19;152728;-53
2023/02/28 02:30:39;;;;;;;;;;;;;;;20.82;38.26;103022.59;7256460;19;154931;-53
2023/02/28 02:33:06;;;;;;;;;;;;;;;20.80;38.65;103030.47;7258654;19;154332;-54
2023/02/28 02:35:36;;;;;;;;;;;;;;;20.76;38.74;103023.63;7256401;19;153161;-54
2023/02/28 02:38:04;;;;;;;;;;;;;;;20.72;38.46;103031.72;7259596;19;154235;-54
2023/02/28 02:40:34;;;;;;;;;;;;;;;20.67;38.89;103028.84;7266326;19;153565;-54
2023/02/28 02:43:04;;;;;;;;;;;;;;;20.63;38.77;103027.66;7259630;19;153566;-54
2023/02/28 02:45:35;;;;;;;;;;;;;;;20.61;38.56;103035.53;7255394;19;154459;-54
2023/02/28 02:48:05;;;;;;;;;;;;;;;20.57;38.74;103020.28;7256504;19;153687;-54
2023/02/28 02:50:36;;;;;;;;;;;;;;;20.54;38.83;103029.22;7256425;19;154075;-53
2023/02/28 02:53:05;;;;;;;;;;;;;;;20.50;39.10;103024.38;7257102;19;153312;-54
2023/02/28 02:55:36;;;;;;;;;;;;;;;20.46;38.92;103026.84;7255350;19;154996;-53
2023/02/28 02:58:05;;;;;;;;;;;;;;;20.44;39.04;103028.22;7256884;19;153878;-53
2023/02/28 03:00:35;;;;;;;;;;;;;;;20.40;39.35;103019.44;7254930;19;154472;-54
2023/02/28 03:03:02;;;;;;;;;;;;;;;20.37;39.30;103020.81;7262473;19;153888;-53
2023/02/28 03:05:34;;;;;;;;;;;;;;;20.36;39.64;103021.06;7257053;19;154200;-53
2023/02/28 03:08:03;;;;;;;;;;;;;;;20.32;39.40;103012.31;7254642;19;153097;-52
2023/02/28 03:10:32;;;;;;;;;;;;;;;20.32;39.69;103015.13;7252414;19;152953;-54
2023/02/28 03:13:05;;;;;;;;;;;;;;;20.30;39.82;103016.50;7252973;19;155235;-54
2023/02/28 03:15:39;;;;;;;;;;;;;;;20.29;39.63;103017.56;7255284;19;154271;-52
2023/02/28 03:18:09;;;;;;;;;;;;;;;20.24;40.01;103020.28;7257401;19;154419;-53
2023/02/28 03:20:38;;;;;;;;;;;;;;;20.20;40.25;103017.16;7256692;19;153253;-54
2023/02/28 03:23:08;;;;;;;;;;;;;;;20.19;40.30;103017.41;7262027;19;153995;-53
2023/02/28 03:25:38;;;;;;;;;;;;;;;20.17;39.89;103012.03;7255364;19;154178;-53
2023/02/28 03:28:05;;;;;;;;;;;;;;;20.15;40.10;103014.25;7254855;19;153611;-53
2023/02/28 03:30:36;;;;;;;;;;;;;;;20.11;40.12;103027.09;7252811;19;154609;-53
2023/02/28 03:33:08;;;;;;;;;;;;;;;20.10;40.33;103024.53;7256119;19;154124;-54
2023/02/28 03:35:39;;;;;;;;;;;;;;;20.09;40.35;103031.25;7254746;19;153550;-53
2023/02/28 03:38:13;;;;;;;;;;;;;;;20.07;40.08;103025.06;7256058;19;153486;-54
2023/02/28 03:40:42;;;;;;;;;;;;;;;20.05;40.35;103024.47;7256559;19;153223;-54
2023/02/28 03:43:12;;;;;;;;;;;;;;;20.02;40.65;103028.63;7254033;19;153516;-54
2023/02/28 03:45:41;;;;;;;;;;;;;;;19.99;40.63;103029.13;7262812;19;153609;-53
2023/02/28 03:48:11;;;;;;;;;;;;;;;19.97;40.45;103026.59;7254193;19;154817;-54
2023/02/28 03:50:40;;;;;;;;;;;;;;;19.95;40.59;103028.78;7254685;19;153996;-54
2023/02/28 03:53:11;;;;;;;;;;;;;;;19.93;40.89;103038.56;7254746;19;153179;-54
2023/02/28 03:55:41;;;;;;;;;;;;;;;19.90;40.79;103045.53;7255517;19;156431;-54
2023/02/28 03:58:16;;;;;;;;;;;;;;;19.90;40.83;103044.66;7254417;19;153715;-53
2023/02/28 04:00:46;;;;;;;;;;;;;;;19.87;40.72;103046.03;7256516;19;154386;-53
2023/02/28 04:03:13;;;;;;;;;;;;;;;19.85;40.42;103037.00;7252820;19;153964;-53
2023/02/28 04:05:47;;;;;;;;;;;;;;;19.83;40.80;103038.38;7256423;19;153194;-54
2023/02/28 04:08:14;;;;;;;;;;;;;;;19.81;40.86;103033.00;7262933;19;153339;-53
2023/02/28 04:10:45;;;;;;;;;;;;;;;19.79;40.65;103035.25;7256001;19;153261;-53
2023/02/28 04:13:12;;;;;;;;;;;;;;;19.77;40.78;103042.19;7253936;19;152673;-53
2023/02/28 04:15:38;;;;;;;;;;;;;;;19.76;40.88;103041.34;7254328;19;153554;-55
2023/02/28 04:18:05;;;;;;;;;;;;;;;19.74;40.62;103039.91;7255543;19;153492;-54
2023/02/28 04:20:32;;;;;;;;;;;;;;;19.74;40.70;103045.50;7256061;19;153708;-54
2023/02/28 04:22:59;;;;;;;;;;;;;;;19.71;40.81;103040.41;7255405;19;153952;-54
2023/02/28 04:25:26;;;;;;;;;;;;;;;19.70;40.96;103052.72;7253813;19;152841;-54
2023/02/28 04:27:52;;;;;;;;;;;;;;;19.66;40.95;103052.38;7256324;19;154007;-54
2023/02/28 04:30:20;;;;;;;;;;;;;;;19.66;40.63;103045.94;7254547;19;153780;-54
2023/02/28 04:32:49;;;;;;;;;;;;;;;19.64;40.95;103051.78;7252654;19;153201;-53
2023/02/28 04:35:16;;;;;;;;;;;;;;;19.62;40.85;103051.19;7252669;19;155798;-53
2023/02/28 04:37:43;;;;;;;;;;;;;;;19.60;40.72;103046.91;7253607;19;154056;-53
2023/02/28 04:40:10;;;;;;;;;;;;;;;19.58;40.62;103049.97;7253497;19;154919;-53
2023/02/28 04:42:37;;;;;;;;;;;;;;;19.56;40.72;103055.00;7252158;19;153351;-54
2023/02/28 04:45:04;;;;;;;;;;;;;;;19.54;41.03;103048.78;7251944;19;153499;-54
2023/02/28 04:47:31;;;;;;;;;;;;;;;19.51;40.67;103049.28;7254837;19;153548;-53
2023/02/28 04:49:58;;;;;;;;;;;;;;;19.51;40.55;103049.28;7251008;19;154056;-53
2023/02/28 04:52:26;;;;;;;;;;;;;;;19.47;40.89;103051.75;7261063;19;152985;-53
2023/02/28 04:54:53;;;;;;;;;;;;;;;19.46;40.88;103060.38;7249534;19;155174;-53
2023/02/28 04:57:20;;;;;;;;;;;;;;;19.44;40.73;103057.81;7253636;19;154120;-54
2023/02/28 04:59:47;;;;;;;;;;;;;;;19.43;40.79;103060.88;7250325;19;152781;-54
2023/02/28 05:02:14;;;;;;;;;;;;;;;19.40;40.95;103059.41;7252391;19;155664;-54
2023/02/28 05:04:40;;;;;;;;;;;;;;;19.39;40.70;103054.06;7253059;19;152501;-54
2023/02/28 05:07:07;;;;;;;;;;;;;;;19.38;40.68;103055.16;7252269;19;154589;-54
2023/02/28 05:09:34;;;;;;;;;;;;;;;19.36;40.80;103057.34;7252411;19;153410;-54
2023/02/28 05:12:03;;;;;;;;;;;;;;;19.33;41.00;103061.50;7259254;19;153495;-53
2023/02/28 05:14:32;;;;;;;;;;;;;;;19.32;40.62;103061.75;7249714;19;153887;-53
2023/02/28 05:16:59;;;;;;;;;;;;;;;19.28;40.97;103069.81;7252927;19;152860;-53
2023/02/28 05:19:29;;;;;;;;;;;;;;;19.28;40.93;103069.81;7253259;19;153453;-53
2023/02/28 05:21:56;;;;;;;;;;;;;;;19.26;40.55;103063.59;7251336;19;154484;-53
2023/02/28 05:24:23;;;;;;;;;;;;;;;19.25;41.00;103061.03;7252429;19;152764;-53
2023/02/28 05:26:53;;;;;;;;;;;;;;;19.25;40.79;103066.66;7253120;19;153684;-54
2023/02/28 05:29:20;;;;;;;;;;;;;;;19.29;40.94;103070.66;7247627;19;153170;-54
2023/02/28 05:31:49;;;;;;;;;;;;;;;19.36;40.95;103065.75;7252854;19;154617;-54
2023/02/28 05:34:16;;;;;;;;;;;;;;;19.43;40.63;103069.28;7262186;19;154507;-53
2023/02/28 05:36:43;;;;;;;;;;;;;;;19.48;41.07;103077.81;7254498;19;152713;-54
2023/02/28 05:39:12;;;;;;;;;;;;;;;19.54;40.80;103079.59;7259082;19;154257;-54
2023/02/28 05:41:41;;;;;;;;;;;;;;;19.60;40.96;103080.56;7259011;19;151941;-53
2023/02/28 05:44:08;;;;;;;;;;;;;;;19.63;41.08;103080.91;7257448;19;152888;-53
2023/02/28 05:46:34;;;;;;;;;;;;;;;19.68;41.26;103081.00;7259147;19;154336;-54
2023/02/28 05:49:02;;;;;;;;;;;;;;;19.73;41.29;103081.13;7259632;19;153217;-55
2023/02/28 05:51:29;;;;;;;;;;;;;;;19.78;41.60;103084.03;7259434;19;153226;-54
2023/02/28 05:54:01;;;;;;;;;;;;;;;19.82;41.54;103087.16;7261221;19;154460;-54
2023/02/28 05:56:28;;;;;;;;;;;;;;;19.87;41.64;103090.94;7263562;19;154802;-54
2023/02/28 05:58:55;;;;;;;;;;;;;;;19.93;41.70;103092.75;7255496;19;154355;-55
2023/02/28 06:01:22;;;;;;;;;;;;;;;19.98;41.68;103098.44;7258973;19;153323;-54
2023/02/28 06:03:49;;;;;;;;;;;;;;;20.04;41.51;103099.38;7260823;19;153908;-54
2023/02/28 06:06:18;;;;;;;;;;;;;;;20.10;41.20;103092.75;7260470;19;154105;-54
2023/02/28 06:08:45;;;;;;;;;;;;;;;20.14;41.11;103091.13;7257851;19;153390;-54
2023/02/28 06:11:12;;;;;;;;;;;;;;;20.19;41.39;103102.47;7260801;19;154135;-53
2023/02/28 06:13:39;;;;;;;;;;;;;;;20.24;41.21;103091.31;7253385;19;153828;-53
2023/02/28 06:16:06;;;;;;;;;;;;;;;20.30;41.17;103093.16;7260566;19;153498;-54
2023/02/28 06:18:33;;;;;;;;;;;;;;;20.35;40.94;103092.41;7267194;19;153898;-53
2023/02/28 06:21:00;;;;;;;;;;;;;;;20.40;40.90;103095.25;7260520;19;153580;-54
2023/02/28 06:23:27;;;;;;;;;;;;;;;20.46;41.23;103104.63;7259494;19;152410;-53
2023/02/28 06:25:57;;;;;;;;;;;;;;;20.49;40.80;103104.97;7259626;19;153320;-53
2023/02/28 06:28:25;;;;;;;;;;;;;;;20.53;41.03;103094.94;7253673;19;153630;-53
2023/02/28 06:30:52;;;;;;;;;;;;;;;20.58;40.66;103088.56;7259813;19;153883;-53
2023/02/28 06:33:19;;;;;;;;;;;;;;;20.63;40.67;103103.50;7256237;19;154899;-53
2023/02/28 06:35:46;;;;;;;;;;;;;;;20.67;40.66;103096.25;7257164;19;154665;-54
2023/02/28 06:38:13;;;;;;;;;;;;;;;20.71;40.85;103100.28;7256852;19;153351;-53
2023/02/28 06:40:40;;;;;;;;;;;;;;;20.75;40.53;103095.84;7264315;19;153978;-54
2023/02/28 06:43:07;;;;;;;;;;;;;;;20.79;40.31;103096.19;7256538;19;152341;-57
2023/02/28 06:45:34;;;;;;;;;;;;;;;20.82;40.06;103088.06;7256610;19;153580;-54
2023/02/28 06:48:01;;;;;;;;;;;;;;;20.86;40.41;103086.44;7255552;19;154105;-54
2023/02/28 06:50:29;;;;;;;;;;;;;;;20.90;39.93;103092.41;7255526;19;153648;-54
2023/02/28 06:52:56;;;;;;;;;;;;;;;20.94;40.11;103087.13;7254761;19;154526;-56
2023/02/28 06:55:23;;;;;;;;;;;;;;;20.94;39.83;103089.94;7256589;19;154307;-54
2023/02/28 06:57:50;;;;;;;;;;;;;;;20.98;39.42;103088.31;7257910;19;154125;-54
2023/02/28 07:00:17;;;;;;;;;;;;;;;21.00;39.43;103086.06;7254579;19;153798;-53
2023/02/28 07:02:45;;;;;;;;;;;;;;;21.02;39.70;103086.69;7268954;19;155278;-54
2023/02/28 07:05:12;;;;;;;;;;;;;;;21.03;39.23;103089.22;7259291;19;153751;-54
2023/02/28 07:07:43;;;;;;;;;;;;;;;21.04;39.32;103090.91;7256679;19;155470;-53
2023/02/28 07:10:11;;;;;;;;;;;;;;;21.07;39.23;103090.41;7257356;19;154655;-54
2023/02/28 07:12:38;;;;;;;;;;;;;;;21.09;38.82;103090.13;7255739;19;155068;-54
2023/02/28 07:15:05;;;;;;;;;;;;;;;21.07;38.60;103098.84;7253921;19;153571;-53
2023/02/28 07:17:32;;;;;;;;;;;;;;;21.08;38.93;103103.34;7255973;19;152051;-54
2023/02/28 07:19:59;;;;;;;;;;;;;;;21.01;38.70;103102.69;7256632;19;153729;-53
2023/02/28 07:22:26;;;;;;;;;;;;;;;20.84;36.51;103097.13;7265206;19;153636;-54
2023/02/28 07:24:53;;;;;;;;;;;;;;;20.88;37.37;103107.81;7258207;19;154426;-53
2023/02/28 07:27:23;;;;;;;;;;;;;;;20.90;37.25;103106.44;7255059;19;154207;-53
2023/02/28 07:29:50;;;;;;;;;;;;;;;20.94;37.20;103113.25;7253649;19;152992;-54
2023/02/28 07:32:18;;;;;;;;;;;;;;;20.95;37.30;103111.28;7256995;19;153446;-54
2023/02/28 07:34:45;;;;;;;;;;;;;;;20.99;37.28;103112.47;7255744;19;154030;-53
2023/02/28 07:37:12;;;;;;;;;;;;;;;21.03;37.53;103110.88;7257553;19;153308;-54
2023/02/28 07:39:41;;;;;;;;;;;;;;;21.05;37.64;103115.09;7255876;19;154257;-54
2023/02/28 07:42:11;;;;;;;;;;;;;;;21.08;37.21;103105.28;7255457;19;153474;-53
2023/02/28 07:44:40;;;;;;;;;;;;;;;21.10;37.14;103103.94;7260696;19;153718;-53
2023/02/28 07:47:08;;;;;;;;;;;;;;;21.12;37.17;103104.50;7257730;19;153170;-53
2023/02/28 07:49:36;;;;;;;;;;;;;;;21.16;37.63;103108.56;7256110;19;153932;-52
2023/02/28 07:52:04;;;;;;;;;;;;;;;21.17;37.10;103100.94;7256346;19;153838;-53
2023/02/28 07:54:32;;;;;;;;;;;;;;;21.14;37.06;103099.53;7254685;19;154483;-54
2023/02/28 07:56:59;;;;;;;;;;;;;;;21.17;36.76;103106.56;7257084;19;154150;-54
2023/02/28 07:59:26;;;;;;;;;;;;;;;21.13;36.41;103113.84;7252374;19;154609;-55
2023/02/28 08:01:58;;;;;;;;;;;;;;;21.15;35.90;103115.28;7254666;19;153372;-54
2023/02/28 08:04:25;;;;;;;;;;;;;;;21.10;36.11;103106.75;7252648;19;153883;-55
2023/02/28 08:06:53;;;;;;;;;;;;;;;21.09;35.42;103107.00;7261484;19;153279;-54
2023/02/28 08:09:21;;;;;;;;;;;;;;;21.09;35.33;103113.47;7255486;19;153893;-54
2023/02/28 08:11:49;;;;;;;;;;;;;;;21.06;35.65;103113.16;7255489;19;155016;-55
2023/02/28 08:14:18;;;;;;;;;;;;;;;21.04;35.78;103115.34;7250156;19;153384;-54
2023/02/28 08:16:45;;;;;;;;;;;;;;;21.02;35.13;103115.63;7256319;19;153166;-54
2023/02/28 08:19:13;;;;;;;;;;;;;;;21.03;35.06;103127.72;7255195;19;153404;-62
2023/02/28 08:21:40;;;;;;;;;;;;;;;20.99;34.96;103120.91;7254781;19;154033;-54
2023/02/28 08:24:07;;;;;;;;;;;;;;;20.96;35.23;103119.47;7257200;19;153685;-54
2023/02/28 08:26:34;;;;;;;;;;;;;;;20.97;35.03;103112.75;7258541;19;153029;-53
2023/02/28 08:29:01;;;;;;;;;;;;;;;20.99;34.86;103115.28;7258968;19;154457;-58
2023/02/28 08:31:28;;;;;;;;;;;;;;;20.94;35.04;103110.44;7255026;19;153484;-53
2023/02/28 08:33:58;;;;;;;;;;;;;;;20.93;35.22;103116.34;7251420;19;156543;-54
2023/02/28 08:36:28;;;;;;;;;;;;;;;20.91;35.13;103110.09;7254599;19;154699;-54
2023/02/28 08:38:56;;;;;;;;;;;;;;;20.90;35.34;103112.06;7254748;19;152334;-54
2023/02/28 08:41:23;;;;;;;;;;;;;;;20.90;36.00;103109.25;7254321;19;153254;-54
2023/02/28 08:43:51;;;;;;;;;;;;;;;20.89;35.67;103109.53;7252160;19;153846;-54
2023/02/28 08:46:18;;;;;;;;;;;;;;;20.92;35.41;103123.06;7255526;19;153829;-54
2023/02/28 08:48:45;;;;;;;;;;;;;;;20.88;35.45;103114.31;7254011;19;153377;-54
2023/02/28 08:51:16;;;;;;;;;;;;;;;20.89;35.46;103116.00;7259783;19;154704;-54
2023/02/28 08:53:44;;;;;;;;;;;;;;;20.94;35.54;103113.25;7252197;19;154095;-55
2023/02/28 08:56:12;;;;;;;;;;;;;;;20.96;35.53;103118.63;7257172;19;152947;-53
2023/02/28 08:58:39;;;;;;;;;;;;;;;20.99;35.49;103104.03;7251250;19;153606;-54
2023/02/28 09:01:09;;;;;;;;;;;;;;;21.03;35.22;103105.25;7253624;19;153045;-53
2023/02/28 09:03:36;;;;;;;;;;;;;;;21.03;35.21;103094.00;7255413;19;152344;-54
2023/02/28 09:06:03;;;;;;;;;;;;;;;21.05;34.97;103100.19;7254673;19;152562;-53
2023/02/28 09:08:31;;;;;;;;;;;;;;;21.04;35.01;103099.34;7253325;19;152708;-54
2023/02/28 09:11:04;;;;;;;;;;;;;;;21.06;34.90;103101.91;7258954;19;153466;-54
2023/02/28 09:13:35;;;;;;;;;;;;;;;21.07;34.67;103100.81;7264865;19;154905;-53
2023/02/28 09:16:04;;;;;;;;;;;;;;;21.05;34.71;103095.44;7263892;19;152905;-53
2023/02/28 09:18:34;;;;;;;;;;;;;;;21.06;34.86;103094.34;7262214;19;152471;-53
2023/02/28 09:21:03;;;;;;;;;;;;;;;21.07;34.63;103093.22;7261046;19;152512;-54
2023/02/28 09:23:30;;;;;;;;;;;;;;;21.04;34.99;103090.91;7259807;19;152143;-53
2023/02/28 09:25:57;;;;;;;;;;;;;;;21.04;35.04;103088.09;7263166;19;155780;-53
2023/02/28 09:28:24;;;;;;;;;;;;;;;21.04;34.70;103090.91;7256946;19;152290;-53
2023/02/28 09:30:56;;;;;;;;;;;;;;;21.02;34.87;103104.41;7263548;19;152603;-53
2023/02/28 09:33:23;;;;;;;;;;;;;;;20.96;34.99;103096.13;7266608;19;153220;-53
2023/02/28 09:35:57;;;;;;;;;;;;;;;20.96;34.54;103097.00;7263970;19;153245;-53
2023/02/28 09:38:24;;;;;;;;;;;;;;;20.92;34.90;103103.38;7262373;19;152634;-53
2023/02/28 09:40:58;;;;;;;;;;;;;;;20.91;35.05;103094.09;7262124;19;153756;-53
2023/02/28 09:43:28;;;;;;;;;;;;;;;20.94;35.04;103095.56;7256889;19;152079;-53
2023/02/28 09:46:06;;;;;;;;;;;;;;;20.98;34.76;103096.75;7261230;19;154887;-53
2023/02/28 09:48:37;;;;;;;;;;;;;;;21.00;34.77;103077.63;7255570;19;153703;-54
2023/02/28 09:51:09;;;;;;;;;;;;;;;21.04;34.80;103076.00;7259038;19;153452;-54
2023/02/28 09:53:39;;;;;;;;;;;;;;;21.05;34.84;103078.56;7259891;19;153254;-53
2023/02/28 09:56:10;;;;;;;;;;;;;;;21.04;34.87;103076.84;7267832;19;152839;-53
2023/02/28 09:58:37;;;;;;;;;;;;;;;21.05;34.67;103078.56;7257047;19;152811;-53
2023/02/28 10:01:07;;;;;;;;;;;;;;;21.03;34.64;103069.53;7259486;19;154142;-54
2023/02/28 10:03:39;;;;;;;;;;;;;;;21.04;34.72;103073.19;7258886;19;152774;-53
2023/02/28 10:06:12;;;;;;;;;;;;;;;21.06;34.39;103079.41;7261019;19;153288;-53
2023/02/28 10:08:44;;;;;;;;;;;;;;;21.00;34.57;103077.63;7257865;19;153907;-55
2023/02/28 10:11:15;;;;;;;;;;;;;;;20.94;34.45;103075.88;7263461;19;152487;-55
2023/02/28 10:13:52;;;;;;;;;;;;;;;20.96;34.96;103080.13;7255703;19;152951;-55
2023/02/28 10:16:22;;;;;;;;;;;;;;;20.88;34.47;103088.16;7260313;19;152608;-55
2023/02/28 10:18:51;;;;;;;;;;;;;;;20.87;34.69;103084.50;7266430;19;153126;-55
2023/02/28 10:21:21;;;;;;;;;;;;;;;20.84;34.56;103085.88;7258741;19;152346;-55
2023/02/28 10:23:48;;;;;;;;;;;;;;;20.80;34.96;103079.03;7258253;19;153076;-55
2023/02/28 10:26:17;;;;;;;;;;;;;;;20.79;34.55;103080.19;7259898;19;152774;-54
2023/02/28 10:28:45;;;;;;;;;;;;;;;20.76;34.96;103075.06;7255628;19;153326;-54
2023/02/28 10:31:16;;;;;;;;;;;;;;;20.72;34.89;103073.00;7261446;19;153535;-55
2023/02/28 10:33:43;;;;;;;;;;;;;;;20.71;34.86;103068.53;7259050;19;152832;-55
2023/02/28 10:36:13;;;;;;;;;;;;;;;20.71;34.96;103068.53;7260517;19;153516;-55
2023/02/28 10:38:41;;;;;;;;;;;;;;;20.67;34.79;103070.16;7254898;19;152740;-55
2023/02/28 10:41:09;;;;;;;;;;;;;;;20.63;35.17;103075.41;7267048;19;153145;-54
2023/02/28 10:43:41;;;;;;;;;;;;;;;20.65;34.82;103069.56;7194850;19;158953;-54
2023/02/28 10:46:13;;;;;;;;;;;;;;;20.68;35.23;103069.03;7246203;19;153678;-55
2023/02/28 10:48:53;;;;;;;;;;;;;;;20.65;35.26;103066.75;7231328;19;154857;-54
2023/02/28 10:51:23;;;;;;;;;;;;;;;20.71;35.16;103071.34;7247729;19;154474;-54
2023/02/28 10:53:51;;;;;;;;;;;;;;;20.77;35.10;103064.66;7256564;19;153340;-53
2023/02/28 10:56:27;;;;;;;;;;;;;;;20.81;34.96;103061.09;7254799;19;154968;-54
2023/02/28 10:58:55;;;;;;;;;;;;;;;20.85;35.16;103055.78;7252216;19;153330;-53
2023/02/28 11:01:24;;;;;;;;;;;;;;;20.88;35.43;103058.09;7255444;19;152587;-53
2023/02/28 11:03:53;;;;;;;;;;;;;;;20.90;35.44;103053.06;7262673;19;153379;-54
2023/02/28 11:06:23;;;;;;;;;;;;;;;20.92;35.42;103053.66;7257446;19;153008;-53
2023/02/28 11:08:51;;;;;;;;;;;;;;;20.97;35.50;103052.88;7255557;19;154877;-56
2023/02/28 11:11:20;;;;;;;;;;;;;;;20.99;35.51;103048.69;7257220;19;153331;-53
2023/02/28 11:13:50;;;;;;;;;;;;;;;21.00;35.13;103049.53;7253553;19;152698;-53
2023/02/28 11:16:17;;;;;;;;;;;;;;;21.02;35.49;103050.13;7255403;19;153951;-53
2023/02/28 11:18:48;;;;;;;;;;;;;;;21.03;35.22;103049.84;7255078;19;152119;-53
2023/02/28 11:21:18;;;;;;;;;;;;;;;21.04;35.21;103053.53;7256430;19;153816;-53
2023/02/28 11:23:45;;;;;;;;;;;;;;;21.05;35.34;103041.19;7255829;19;152491;-53
2023/02/28 11:26:13;;;;;;;;;;;;;;;21.05;35.06;103027.97;7263556;19;152875;-53
2023/02/28 11:28:41;;;;;;;;;;;;;;;21.07;34.92;103030.53;7252925;19;154447;-53
2023/02/28 11:31:11;;;;;;;;;;;;;;;21.07;35.32;103022.97;7257808;19;152431;-53
2023/02/28 11:33:42;;;;;;;;;;;;;;;21.04;34.93;103015.03;7256379;19;153146;-53
2023/02/28 11:36:12;;;;;;;;;;;;;;;21.05;35.18;103011.09;7257011;19;154025;-53
2023/02/28 11:38:40;;;;;;;;;;;;;;;21.01;34.99;102995.03;7256149;19;152471;-53
2023/02/28 11:41:14;;;;;;;;;;;;;;;20.97;35.32;102974.19;7257413;19;152706;-53
2023/02/28 11:43:45;;;;;;;;;;;;;;;20.94;35.41;102969.94;7249293;19;152550;-53
2023/02/28 11:46:15;;;;;;;;;;;;;;;20.92;35.07;102974.97;7261587;19;153760;-53
2023/02/28 11:48:47;;;;;;;;;;;;;;;20.88;35.15;102976.63;7251645;19;152967;-53
2023/02/28 11:51:17;;;;;;;;;;;;;;;20.85;35.25;102999.59;7254660;19;153839;-53
2023/02/28 11:53:45;;;;;;;;;;;;;;;20.85;35.40;103008.88;7255372;19;152557;-53
2023/02/28 11:56:19;;;;;;;;;;;;;;;20.84;35.14;103015.63;7253747;19;153938;-53
2023/02/28 11:58:54;;;;;;;;;;;;;;;20.82;35.11;103016.97;7250718;19;152695;-53
2023/02/28 12:01:24;;;;;;;;;;;;;;;20.79;35.50;103015.56;7257218;19;153662;-53
2023/02/28 12:03:55;;;;;;;;;;;;;;;20.76;35.49;103013.25;7254270;19;153799;-53
2023/02/28 12:06:26;;;;;;;;;;;;;;;20.77;35.25;103008.47;7255061;19;153654;-53
2023/02/28 12:08:53;;;;;;;;;;;;;;;20.71;35.68;102996.34;7260021;19;153947;-53
2023/02/28 12:11:24;;;;;;;;;;;;;;;20.70;35.41;102996.59;7256000;19;153328;-53
2023/02/28 12:13:58;;;;;;;;;;;;;;;20.70;35.48;102990.97;7251409;19;154470;-53
2023/02/28 12:16:27;;;;;;;;;;;;;;;20.67;35.81;102992.34;7253226;19;154260;-53
2023/02/28 12:18:58;;;;;;;;;;;;;;;20.65;35.53;102983.34;7256175;19;152891;-53
2023/02/28 12:21:30;;;;;;;;;;;;;;;20.62;35.54;102977.38;7256496;19;153297;-56
2023/02/28 12:23:57;;;;;;;;;;;;;;;20.59;35.71;102978.75;7255824;19;152804;-53
2023/02/28 12:26:28;;;;;;;;;;;;;;;20.55;35.55;102966.34;7258249;19;152579;-53
2023/02/28 12:29:04;;;;;;;;;;;;;;;20.54;35.91;102961.81;7252377;19;154841;-53
2023/02/28 12:31:36;;;;;;;;;;;;;;;20.52;35.91;102951.97;7260498;19;153970;-53
2023/02/28 12:34:07;;;;;;;;;;;;;;;20.48;35.82;102946.03;7254668;19;153948;-53
2023/02/28 12:36:36;;;;;;;;;;;;;;;20.46;35.63;102933.34;7254018;19;152777;-53
2023/02/28 12:39:08;;;;;;;;;;;;;;;20.42;36.18;102921.78;7254735;19;154262;-53
2023/02/28 12:41:41;;;;;;;;;;;;;;;20.37;36.20;102922.56;7254815;19;153041;-53
2023/02/28 12:44:12;;;;;;;;;;;;;;;20.34;36.01;102916.63;7252117;19;154194;-53
2023/02/28 12:46:44;;;;;;;;;;;;;;;20.33;36.16;102912.09;7255206;19;152721;-53
2023/02/28 12:49:16;;;;;;;;;;;;;;;20.32;35.85;102916.88;7251643;19;154879;-53
2023/02/28 12:51:44;;;;;;;;;;;;;;;20.29;36.36;102911.75;7248723;19;152403;-53
2023/02/28 12:54:12;;;;;;;;;;;;;;;20.25;36.00;102921.81;7260977;19;153153;-53
2023/02/28 12:56:43;;;;;;;;;;;;;;;20.22;36.38;102913.03;7252341;19;155283;-54
2023/02/28 12:59:13;;;;;;;;;;;;;;;20.19;36.10;102917.22;7249794;19;153374;-53
2023/02/28 13:01:44;;;;;;;;;;;;;;;20.17;36.50;102912.97;7255202;19;154528;-53
2023/02/28 13:04:14;;;;;;;;;;;;;;;20.15;36.06;102906.75;7252753;19;153423;-53
2023/02/28 13:06:44;;;;;;;;;;;;;;;20.12;36.11;102896.91;7253010;19;152782;-53
2023/02/28 13:09:15;;;;;;;;;;;;;;;20.10;36.46;102898.25;7251649;19;155171;-53
2023/02/28 13:11:44;;;;;;;;;;;;;;;20.11;36.19;102888.75;7253844;19;153664;-53
2023/02/28 13:14:15;;;;;;;;;;;;;;;20.05;36.25;102889.75;7251812;19;152977;-53
2023/02/28 13:16:47;;;;;;;;;;;;;;;20.02;36.16;102874.31;7261038;19;154032;-53
2023/02/28 13:19:18;;;;;;;;;;;;;;;19.98;36.19;102873.13;7251660;19;152027;-53